createdAt,value
2019-01-21T00:00:46.374Z,98321.74
2019-01-21T00:03:18.727Z,98322.48
2019-01-21T00:05:51.296Z,98322.26
2019-01-21T00:08:22.953Z,98322.99
2019-01-21T00:10:55.170Z,98323.78
2019-01-21T00:13:26.248Z,98321.26
2019-01-21T00:15:56.872Z,98327.34
2019-01-21T00:18:29.284Z,98330.53
2019-01-21T00:21:00.278Z,98329.53
2019-01-21T00:23:30.794Z,98326.48
2019-01-21T00:26:03.126Z,98319.73
2019-01-21T00:28:40.000Z,98322.43
2019-01-21T00:31:12.141Z,98326.44
2019-01-21T00:33:44.285Z,98326.56
2019-01-21T00:36:15.120Z,98326.86
2019-01-21T00:38:47.446Z,98326.44
2019-01-21T00:41:19.699Z,98324.46
2019-01-21T00:43:51.733Z,98324.46
2019-01-21T00:46:23.945Z,98325.38
2019-01-21T00:48:56.283Z,98330.22
2019-01-21T00:51:26.720Z,98328.24
2019-01-21T00:53:58.935Z,98325.11
2019-01-21T00:56:30.954Z,98318.30
2019-01-21T00:59:03.284Z,98318.30
2019-01-21T01:01:33.873Z,98329.51
2019-01-21T01:04:05.954Z,98328.16
2019-01-21T01:06:37.950Z,98331.30
2019-01-21T01:09:10.674Z,98335.07
2019-01-21T01:11:42.708Z,98339.55
2019-01-21T01:14:14.752Z,98339.55
2019-01-21T01:16:46.811Z,98341.63
2019-01-21T01:19:19.246Z,98339.62
2019-01-21T01:21:49.701Z,98343.11
2019-01-21T01:24:21.789Z,98340.41
2019-01-21T01:26:53.901Z,98342.10
2019-01-21T01:29:25.951Z,98336.20
2019-01-21T01:31:57.957Z,98336.20
2019-01-21T01:34:29.934Z,98345.75
2019-01-21T01:37:02.352Z,98347.66
2019-01-21T01:39:33.293Z,98346.31
2019-01-21T01:42:03.854Z,98346.45
2019-01-21T01:44:35.883Z,98349.14
2019-01-21T01:47:08.124Z,98351.00
2019-01-21T01:49:40.140Z,98348.08
2019-01-21T01:52:12.294Z,98347.45
2019-01-21T01:54:44.660Z,98344.38
2019-01-21T01:57:16.711Z,98343.10
2019-01-21T01:59:48.891Z,98343.10
2019-01-21T02:02:21.297Z,98344.67
2019-01-21T02:04:53.677Z,98337.05
2019-01-21T02:07:25.748Z,98337.05
2019-01-21T02:09:58.071Z,98342.45
2019-01-21T02:12:30.100Z,98337.05
2019-01-21T02:15:02.098Z,98336.77
2019-01-21T02:17:34.324Z,98339.41
2019-01-21T02:20:07.937Z,98328.02
2019-01-21T02:22:44.435Z,98328.02
2019-01-21T02:25:16.952Z,98329.45
2019-01-21T02:28:44.284Z,98328.23
2019-01-21T02:31:59.065Z,98340.59
2019-01-21T02:35:13.721Z,98332.50
2019-01-21T02:38:14.911Z,98331.78
2019-01-21T02:41:28.894Z,98331.78
2019-01-21T02:44:43.315Z,98335.64
2019-01-21T02:47:45.082Z,98332.78
2019-01-21T02:51:13.586Z,98327.03
2019-01-21T02:54:06.867Z,98327.03
2019-01-21T02:57:25.267Z,98322.14
2019-01-21T03:00:15.609Z,98325.41
2019-01-21T03:03:30.956Z,98325.75
2019-01-21T03:06:42.793Z,98325.13
2019-01-21T03:10:27.397Z,98325.31
2019-01-21T03:13:38.299Z,98326.38
2019-01-21T03:16:48.282Z,98326.38
2019-01-21T03:19:52.287Z,98318.91
2019-01-21T03:23:01.596Z,98325.72
2019-01-21T03:26:21.288Z,98325.72
2019-01-21T03:29:17.007Z,98329.20
2019-01-21T03:32:21.724Z,98322.86
2019-01-21T03:35:52.667Z,98322.86
2019-01-21T03:39:13.291Z,98330.04
2019-01-21T03:42:06.280Z,98330.76
2019-01-21T03:45:22.622Z,98332.67
2019-01-21T03:48:43.237Z,98327.05
2019-01-21T03:51:59.477Z,98328.97
2019-01-21T03:54:59.968Z,98323.00
2019-01-21T03:58:59.705Z,98323.00
2019-01-21T04:02:14.270Z,98327.16
2019-01-21T04:05:16.616Z,98320.98
2019-01-21T04:09:01.547Z,98321.48
2019-01-21T04:12:21.293Z,98319.34
2019-01-21T04:15:27.743Z,98318.91
2019-01-21T04:18:30.291Z,98316.36
2019-01-21T04:21:46.079Z,98315.70
2019-01-21T04:25:00.755Z,98314.50
2019-01-21T04:28:44.720Z,98317.70
2019-01-21T04:32:03.335Z,98317.70
2019-01-21T04:35:39.712Z,98321.95
2019-01-21T04:39:27.144Z,98321.95
2019-01-21T04:42:14.092Z,98319.84
2019-01-21T04:46:11.710Z,98318.84
2019-01-21T04:49:24.304Z,98322.31
2019-01-21T04:52:25.285Z,98329.52
2019-01-21T04:55:22.008Z,98324.91
2019-01-21T04:58:47.239Z,98328.73
2019-01-21T05:01:47.691Z,98330.19
2019-01-21T05:05:17.889Z,98328.95
2019-01-21T05:08:43.680Z,98332.78
2019-01-21T05:12:10.754Z,98338.89
2019-01-21T05:15:43.838Z,98338.55
2019-01-21T05:19:04.663Z,98334.55
2019-01-21T05:22:57.677Z,98325.06
2019-01-21T05:26:14.255Z,98338.91
2019-01-21T05:29:17.426Z,98330.38
2019-01-21T05:32:43.289Z,98335.77
2019-01-21T05:35:57.701Z,98335.77
2019-01-21T05:39:18.691Z,98330.94
2019-01-21T05:42:52.699Z,98331.05
2019-01-21T05:45:58.285Z,98326.38
2019-01-21T05:48:52.873Z,98333.19
2019-01-21T05:52:20.945Z,98328.51
2019-01-21T05:55:54.291Z,98332.41
2019-01-21T05:58:45.422Z,98330.98
2019-01-21T06:02:03.947Z,98338.16
2019-01-21T06:05:40.428Z,98341.42
2019-01-21T06:09:27.729Z,98338.84
2019-01-21T06:12:56.781Z,98338.84
2019-01-21T06:16:14.281Z,98336.15
2019-01-21T06:19:07.381Z,98337.98
2019-01-21T06:22:10.871Z,98339.11
2019-01-21T06:25:46.779Z,98342.70
2019-01-21T06:29:13.999Z,98342.14
2019-01-21T06:32:54.091Z,98346.06
2019-01-21T06:36:14.085Z,98346.66
2019-01-21T06:39:59.647Z,98346.66
2019-01-21T06:43:33.275Z,98357.20
2019-01-21T06:46:49.408Z,98364.42
2019-01-21T06:50:12.280Z,98368.09
2019-01-21T06:52:55.861Z,98368.09
2019-01-21T06:56:23.291Z,98369.36
2019-01-21T06:59:43.698Z,98369.89
2019-01-21T07:03:07.740Z,98372.14
2019-01-21T07:06:24.621Z,98373.15
2019-01-21T07:09:44.285Z,98371.69
2019-01-21T07:12:38.013Z,98373.38
2019-01-21T07:16:00.410Z,98357.20
2019-01-21T07:19:43.572Z,98363.05
2019-01-21T07:23:01.291Z,98363.05
2019-01-21T07:26:02.673Z,98359.45
2019-01-21T07:29:33.244Z,98356.08
2019-01-21T07:32:44.874Z,98364.89
2019-01-21T07:36:29.754Z,98360.55
2019-01-21T07:39:52.668Z,98358.33
2019-01-21T07:43:32.947Z,98365.80
2019-01-21T07:46:57.431Z,98360.94
2019-01-21T07:50:23.672Z,98357.56
2019-01-21T07:53:40.592Z,98357.56
2019-01-21T07:57:13.671Z,98359.20
2019-01-21T08:00:57.016Z,98366.55
2019-01-21T08:04:29.689Z,98359.52
2019-01-21T08:08:03.405Z,98367.20
2019-01-21T08:11:09.953Z,98367.02
2019-01-21T08:14:36.944Z,98367.02
2019-01-21T08:18:01.909Z,98367.12
2019-01-21T08:21:23.681Z,98371.84
2019-01-21T08:24:39.373Z,98368.67
2019-01-21T08:28:22.679Z,98374.61
2019-01-21T08:31:41.951Z,98378.15
2019-01-21T08:34:54.681Z,98378.15
2019-01-21T08:38:18.020Z,98375.23
2019-01-21T08:41:42.276Z,98375.87
2019-01-21T08:44:49.280Z,98377.52
2019-01-21T08:48:22.953Z,98376.91
2019-01-21T08:51:46.950Z,98384.61
2019-01-21T08:55:19.593Z,98384.46
2019-01-21T08:58:51.118Z,98388.22
2019-01-21T09:02:23.783Z,98385.60
2019-01-21T09:05:47.269Z,98391.27
2019-01-21T09:09:01.279Z,98383.66
2019-01-21T09:12:20.674Z,98384.16
2019-01-21T09:15:43.334Z,98379.52
2019-01-21T09:18:44.847Z,98386.86
2019-01-21T09:21:33.121Z,98382.69
2019-01-21T09:24:27.664Z,98386.50
2019-01-21T09:28:08.399Z,98390.34
2019-01-21T09:31:21.682Z,98390.78
2019-01-21T09:34:38.065Z,98390.78
2019-01-21T09:38:08.901Z,98385.45
2019-01-21T09:41:49.943Z,98384.98
2019-01-21T09:45:12.870Z,98385.83
2019-01-21T09:47:43.211Z,98389.31
2019-01-21T09:50:17.887Z,98389.95
2019-01-21T09:52:52.630Z,98387.68
2019-01-21T09:55:29.720Z,98390.05
2019-01-21T09:58:12.559Z,98392.20
2019-01-21T10:00:47.580Z,98385.83
2019-01-21T10:03:22.682Z,98388.30
2019-01-21T10:06:01.726Z,98390.52
2019-01-21T10:09:12.132Z,98384.54
2019-01-21T10:12:11.679Z,98383.45
2019-01-21T10:15:56.536Z,98377.44
2019-01-21T10:19:00.334Z,98374.64
2019-01-21T10:22:38.679Z,98374.76
2019-01-21T10:25:45.079Z,98369.87
2019-01-21T10:28:45.269Z,98364.39
2019-01-21T10:31:28.669Z,98362.68
2019-01-21T10:35:22.279Z,98360.39
2019-01-21T10:38:30.019Z,98358.31
2019-01-21T10:41:46.062Z,98352.00
2019-01-21T10:45:13.004Z,98352.33
2019-01-21T10:48:28.372Z,98352.33
2019-01-21T10:51:45.318Z,98339.91
2019-01-21T10:54:47.788Z,98339.91
2019-01-21T10:57:52.723Z,98331.61
2019-01-21T11:04:18.890Z,98328.95
2019-01-21T11:07:56.292Z,98333.48
2019-01-21T11:11:24.952Z,98323.77
2019-01-21T11:14:31.271Z,98320.94
2019-01-21T11:17:51.410Z,98311.95
2019-01-21T11:21:19.280Z,98307.59
2019-01-21T11:24:51.796Z,98307.59
2019-01-21T11:28:25.290Z,98308.12
2019-01-21T11:31:53.679Z,98300.81
2019-01-21T11:35:12.940Z,98296.17
2019-01-21T11:38:13.697Z,98288.20
2019-01-21T11:41:30.585Z,98277.34
2019-01-21T11:45:19.920Z,98284.88
2019-01-21T11:49:06.943Z,98284.88
2019-01-21T11:52:39.738Z,98270.44
2019-01-21T11:56:13.280Z,98263.97
2019-01-21T11:59:34.057Z,98261.98
2019-01-21T12:02:57.786Z,98255.56
2019-01-21T12:06:15.946Z,98258.45
2019-01-21T12:09:46.275Z,98251.84
2019-01-21T12:12:31.279Z,98244.95
2019-01-21T12:16:00.670Z,98239.66
2019-01-21T12:19:16.748Z,98233.96
2019-01-21T12:22:45.269Z,98240.38
2019-01-21T12:25:37.680Z,98246.64
2019-01-21T12:28:48.654Z,98245.12
2019-01-21T12:32:30.268Z,98242.80
2019-01-21T12:35:46.512Z,98236.66
2019-01-21T12:39:26.866Z,98230.33
2019-01-21T12:43:13.675Z,98219.56
2019-01-21T12:46:19.725Z,98209.69
2019-01-21T12:50:06.747Z,98205.76
2019-01-21T12:53:30.585Z,98199.06
2019-01-21T12:56:55.669Z,98195.50
2019-01-21T13:00:50.046Z,98195.06
2019-01-21T13:04:11.727Z,98188.19
2019-01-21T13:07:59.478Z,98183.30
2019-01-21T13:11:31.421Z,98171.23
2019-01-21T13:15:10.896Z,98164.92
2019-01-21T13:18:34.492Z,98164.92
2019-01-21T13:22:09.280Z,98164.42
2019-01-21T13:25:26.457Z,98155.62
2019-01-21T13:28:32.284Z,98142.22
2019-01-21T13:31:55.280Z,98142.22
2019-01-21T13:35:03.064Z,98136.41
2019-01-21T13:38:26.383Z,98136.00
2019-01-21T13:41:53.949Z,98133.69
2019-01-21T13:45:28.374Z,98120.64
2019-01-21T13:49:16.407Z,98116.93
2019-01-21T13:52:43.261Z,98102.67
2019-01-21T13:55:29.575Z,98102.67
2019-01-21T13:58:55.738Z,98102.59
2019-01-21T14:02:06.573Z,98095.37
2019-01-21T14:05:52.716Z,98100.72
2019-01-21T14:09:48.945Z,98096.49
2019-01-21T14:13:05.939Z,98096.16
2019-01-21T14:16:39.933Z,98092.52
2019-01-21T14:19:59.278Z,98094.03
2019-01-21T14:23:05.702Z,98094.13
2019-01-21T14:26:26.359Z,98089.39
2019-01-21T14:29:29.121Z,98075.93
2019-01-21T14:32:18.017Z,98082.63
2019-01-21T14:35:32.712Z,98089.39
2019-01-21T14:39:02.929Z,98085.70
2019-01-21T14:42:17.332Z,98079.03
2019-01-21T14:45:55.003Z,98084.02
2019-01-21T14:49:30.335Z,98089.44
2019-01-21T14:52:36.375Z,98085.27
2019-01-21T14:55:33.343Z,98097.76
2019-01-21T14:59:10.178Z,98096.22
2019-01-21T15:02:10.277Z,98091.98
2019-01-21T15:05:22.075Z,98091.98
2019-01-21T15:08:25.375Z,98090.33
2019-01-21T15:11:53.311Z,98094.91
2019-01-21T15:15:34.599Z,98089.28
2019-01-21T15:18:35.288Z,98089.28
2019-01-21T15:21:42.282Z,98083.84
2019-01-21T15:24:54.898Z,98077.73
2019-01-21T15:28:35.972Z,98081.84
2019-01-21T15:31:31.682Z,98081.20
2019-01-21T15:34:28.730Z,98085.81
2019-01-21T15:38:06.800Z,98086.14
2019-01-21T15:45:06.461Z,98078.98
2019-01-21T15:48:25.644Z,98080.48
2019-01-21T15:51:57.667Z,98080.48
2019-01-21T15:55:09.697Z,98086.17
2019-01-21T15:58:32.170Z,98089.48
2019-01-21T16:01:42.892Z,98086.65
2019-01-21T16:04:57.376Z,98084.98
2019-01-21T16:08:09.279Z,98091.41
2019-01-21T16:11:28.953Z,98087.36
2019-01-21T16:14:21.932Z,98091.26
2019-01-21T16:17:51.536Z,98094.80
2019-01-21T16:20:51.285Z,98098.02
2019-01-21T16:24:12.284Z,98098.02
2019-01-21T16:26:55.014Z,98094.61
2019-01-21T16:29:43.667Z,98092.16
2019-01-21T16:32:33.288Z,98086.36
2019-01-21T16:36:12.279Z,98089.25
2019-01-21T16:38:52.102Z,98096.66
2019-01-21T16:42:16.547Z,98093.02
2019-01-21T16:44:49.893Z,98081.95
2019-01-21T16:47:22.284Z,98091.27
2019-01-21T16:49:53.080Z,98083.55
2019-01-21T16:52:25.122Z,98084.16
2019-01-21T16:54:57.283Z,98083.78
2019-01-21T16:57:27.871Z,98079.31
2019-01-21T17:00:00.287Z,98078.58
2019-01-21T17:02:30.696Z,98085.39
2019-01-21T17:05:02.957Z,98081.91
2019-01-21T17:07:34.950Z,98085.20
2019-01-21T17:10:09.322Z,98086.58
2019-01-21T17:12:41.403Z,98092.03
2019-01-21T17:15:13.668Z,98089.11
2019-01-21T17:17:45.877Z,98089.11
2019-01-21T17:20:21.332Z,98095.52
2019-01-21T17:22:53.356Z,98092.80
2019-01-21T17:25:23.859Z,98091.84
2019-01-21T17:27:56.273Z,98094.15
2019-01-21T17:30:26.854Z,98100.19
2019-01-21T17:32:59.124Z,98097.07
2019-01-21T17:35:31.270Z,98082.31
2019-01-21T17:38:01.692Z,98082.31
2019-01-21T17:40:33.894Z,98074.14
2019-01-21T17:43:06.321Z,98074.14
2019-01-21T17:45:38.275Z,98081.53
2019-01-21T17:48:09.037Z,98085.61
2019-01-21T17:50:41.282Z,98079.95
2019-01-21T17:53:11.987Z,98079.95
2019-01-21T17:55:44.279Z,98071.00
2019-01-21T17:58:16.282Z,98069.27
2019-01-21T18:00:47.046Z,98074.71
2019-01-21T18:03:19.278Z,98065.58
2019-01-21T18:05:49.867Z,98062.66
2019-01-21T18:08:22.095Z,98064.80
2019-01-21T18:10:54.288Z,98065.02
2019-01-21T18:13:25.042Z,98063.64
2019-01-21T18:15:57.282Z,98053.14
2019-01-21T18:18:27.813Z,98052.95
2019-01-21T18:20:59.882Z,98045.78
2019-01-21T18:23:32.250Z,98042.86
2019-01-21T18:26:02.798Z,98049.28
2019-01-21T18:28:34.947Z,98036.83
2019-01-21T18:31:06.949Z,98038.41
2019-01-21T18:33:38.948Z,98039.56
2019-01-21T18:36:11.124Z,98043.84
2019-01-21T18:38:43.268Z,98043.84
2019-01-21T18:41:14.044Z,98044.03
2019-01-21T18:43:46.268Z,98041.31
2019-01-21T18:46:17.045Z,98031.95
2019-01-21T18:50:33.944Z,98021.69
2019-01-21T18:53:06.676Z,98021.69
2019-01-21T18:55:38.948Z,98024.61
2019-01-21T18:58:10.933Z,98024.61
2019-01-21T19:00:42.974Z,98024.41
2019-01-21T19:03:15.099Z,98014.14
2019-01-21T19:05:45.862Z,98016.64
2019-01-21T19:08:17.954Z,98021.90
2019-01-21T19:10:50.274Z,98013.00
2019-01-21T19:13:21.131Z,98009.13
2019-01-21T19:15:52.267Z,98012.98
2019-01-21T19:18:22.973Z,98012.98
2019-01-21T19:20:55.266Z,98009.66
2019-01-21T19:23:26.019Z,98010.06
2019-01-21T19:25:58.272Z,98010.06
2019-01-21T19:28:29.243Z,98007.16
2019-01-21T19:31:01.140Z,98006.59
2019-01-21T19:33:33.714Z,98009.50
2019-01-21T19:36:06.280Z,98013.36
2019-01-21T19:38:36.854Z,98008.13
2019-01-21T19:41:09.112Z,98018.23
2019-01-21T19:43:41.403Z,98017.86
2019-01-21T19:46:14.359Z,98012.63
2019-01-21T19:48:47.294Z,98013.98
2019-01-21T19:51:19.901Z,98013.98
2019-01-21T19:53:52.312Z,98014.37
2019-01-21T19:56:26.863Z,98005.07
2019-01-21T19:58:59.286Z,98005.07
2019-01-21T20:01:31.755Z,98014.55
2019-01-21T20:04:04.284Z,98014.95
2019-01-21T20:06:34.871Z,98014.38
2019-01-21T20:09:10.089Z,98016.72
2019-01-21T20:11:42.272Z,98016.72
2019-01-21T20:14:13.264Z,98026.21
2019-01-21T20:16:44.068Z,98028.15
2019-01-21T20:19:16.511Z,98033.40
2019-01-21T20:21:48.957Z,98030.48
2019-01-21T20:24:21.279Z,98022.34
2019-01-21T20:26:52.347Z,98025.81
2019-01-21T20:29:24.957Z,98024.27
2019-01-21T20:31:57.607Z,98024.27
2019-01-21T20:34:30.285Z,98022.34
2019-01-21T20:37:01.541Z,98020.38
2019-01-21T20:39:34.249Z,98025.84
2019-01-21T20:42:05.271Z,98017.87
2019-01-21T20:44:36.121Z,98020.97
2019-01-21T20:47:09.453Z,98023.89
2019-01-21T20:49:41.641Z,98022.13
2019-01-21T20:52:14.521Z,98022.13
2019-01-21T20:54:46.881Z,98017.67
2019-01-21T20:57:19.302Z,98014.97
2019-01-21T20:59:51.968Z,98014.97
2019-01-21T21:02:24.560Z,98009.73
2019-01-21T21:04:57.227Z,98007.19
2019-01-21T21:07:28.109Z,98007.19
2019-01-21T21:10:00.454Z,98001.58
2019-01-21T21:12:33.271Z,97998.67
2019-01-21T21:15:04.669Z,97998.67
2019-01-21T21:17:36.910Z,97991.88
2019-01-21T21:20:10.688Z,97987.40
2019-01-21T21:22:45.311Z,97987.22
2019-01-21T21:25:19.100Z,97986.25
2019-01-21T21:27:51.071Z,97981.40
2019-01-21T21:30:32.319Z,97976.15
2019-01-21T21:33:04.963Z,97974.02
2019-01-21T21:35:37.300Z,97974.02
2019-01-21T21:38:12.376Z,97972.67
2019-01-21T21:40:44.662Z,97966.07
2019-01-21T21:43:17.102Z,97966.07
2019-01-21T21:45:48.157Z,97963.55
2019-01-21T21:48:19.115Z,97962.76
2019-01-21T21:50:51.274Z,97957.52
2019-01-21T21:53:21.707Z,97967.42
2019-01-21T21:55:54.284Z,97956.94
2019-01-21T21:58:25.277Z,97960.04
2019-01-21T22:00:57.589Z,97948.41
2019-01-21T22:03:29.729Z,97948.41
2019-01-21T22:06:01.898Z,97946.86
2019-01-21T22:08:34.276Z,97941.80
2019-01-21T22:11:05.269Z,97942.99
2019-01-21T22:13:37.279Z,97935.03
2019-01-21T22:16:09.670Z,97935.02
2019-01-21T22:18:41.944Z,97939.67
2019-01-21T22:21:14.272Z,97943.55
2019-01-21T22:23:46.243Z,97944.53
2019-01-21T22:26:16.837Z,97941.58
2019-01-21T22:28:49.242Z,97949.34
2019-01-21T22:31:20.109Z,97945.87
2019-01-21T22:33:52.339Z,97951.88
2019-01-21T22:36:25.026Z,97943.14
2019-01-21T22:38:56.281Z,97943.14
2019-01-21T22:41:26.982Z,97946.43
2019-01-21T22:44:01.923Z,97949.30
2019-01-21T22:46:34.268Z,97949.30
2019-01-21T22:49:06.463Z,97954.17
2019-01-21T22:51:39.419Z,97950.66
2019-01-21T22:54:11.726Z,97948.16
2019-01-21T22:56:43.789Z,97948.16
2019-01-21T22:59:15.954Z,97944.06
2019-01-21T23:01:48.273Z,97941.34
2019-01-21T23:04:18.853Z,97940.55
2019-01-21T23:06:51.138Z,97936.50
2019-01-21T23:09:23.266Z,97942.09
2019-01-21T23:11:54.114Z,97938.20
2019-01-21T23:14:26.539Z,97931.80
2019-01-21T23:16:58.767Z,97927.84
2019-01-21T23:19:30.957Z,97927.84
2019-01-21T23:22:03.557Z,97927.16
2019-01-21T23:24:35.896Z,97927.39
2019-01-21T23:27:10.578Z,97932.64
2019-01-21T23:29:42.874Z,97932.64
2019-01-21T23:32:13.869Z,97925.06
2019-01-21T23:34:45.932Z,97925.06
2019-01-21T23:37:17.999Z,97915.58
2019-01-21T23:39:50.307Z,97912.66
2019-01-21T23:42:23.340Z,97919.63
2019-01-21T23:44:55.731Z,97911.05
2019-01-21T23:47:28.281Z,97911.05
2019-01-21T23:50:47.902Z,97911.17
2019-01-21T23:53:21.957Z,97915.39
2019-01-21T23:55:54.319Z,97911.16
2019-01-21T23:58:27.283Z,97901.85
